createdAt,value
2018-02-24T00:01:04.142Z,40.30
2018-02-24T00:03:33.589Z,41.20
2018-02-24T00:06:01.278Z,40.60
2018-02-24T00:08:28.940Z,40.80
2018-02-24T00:10:56.529Z,41.10
2018-02-24T00:13:24.133Z,41.10
2018-02-24T00:15:51.719Z,41.40
2018-02-24T00:18:21.020Z,41.40
2018-02-24T00:20:49.476Z,41.50
2018-02-24T00:23:17.844Z,41.80
2018-02-24T00:25:46.217Z,41.70
2018-02-24T00:28:14.221Z,41.40
2018-02-24T00:30:42.651Z,41.80
2018-02-24T00:33:11.839Z,41.50
2018-02-24T00:35:40.116Z,41.40
2018-02-24T00:38:07.715Z,41.90
2018-02-24T00:40:35.303Z,42.30
2018-02-24T00:43:04.011Z,42.30
2018-02-24T00:45:31.582Z,41.60
2018-02-24T00:47:59.207Z,41.10
2018-02-24T00:50:26.803Z,41.30
2018-02-24T00:52:55.476Z,41.70
2018-02-24T00:55:23.508Z,42.00
2018-02-24T00:57:51.839Z,41.60
2018-02-24T01:00:19.504Z,41.20
2018-02-24T01:02:47.127Z,41.00
2018-02-24T01:05:15.104Z,41.40
2018-02-24T01:07:42.681Z,41.80
2018-02-24T01:10:10.873Z,42.10
2018-02-24T01:12:39.199Z,42.50
2018-02-24T01:15:06.801Z,41.50
2018-02-24T01:17:35.148Z,41.40
2018-02-24T01:20:02.809Z,40.70
2018-02-24T01:22:31.150Z,40.80
2018-02-24T01:24:58.918Z,40.20
2018-02-24T01:27:27.096Z,40.50
2018-02-24T01:29:55.919Z,40.30
2018-02-24T01:32:24.401Z,40.40
2018-02-24T01:34:52.636Z,40.10
2018-02-24T01:37:20.222Z,39.70
2018-02-24T01:39:47.833Z,39.70
2018-02-24T01:42:17.518Z,39.50
2018-02-24T01:44:45.247Z,39.70
2018-02-24T01:47:13.227Z,40.10
2018-02-24T01:49:41.894Z,40.60
2018-02-24T01:52:11.261Z,39.90
2018-02-24T01:54:40.071Z,39.70
2018-02-24T01:57:07.644Z,39.70
2018-02-24T01:59:35.266Z,39.80
2018-02-24T02:02:02.858Z,39.70
2018-02-24T02:04:30.502Z,39.70
2018-02-24T02:06:58.096Z,39.90
2018-02-24T02:09:26.089Z,40.20
2018-02-24T02:11:54.949Z,40.40
2018-02-24T02:14:24.433Z,39.90
2018-02-24T02:16:52.044Z,40.70
2018-02-24T02:19:20.417Z,41.20
2018-02-24T02:21:48.824Z,41.10
2018-02-24T02:24:18.869Z,41.10
2018-02-24T02:26:47.369Z,39.80
2018-02-24T02:29:14.989Z,39.70
2018-02-24T02:31:42.574Z,40.20
2018-02-24T02:34:10.195Z,40.30
2018-02-24T02:36:37.810Z,40.00
2018-02-24T02:39:05.447Z,40.00
2018-02-24T02:41:33.055Z,40.20
2018-02-24T02:44:01.177Z,40.00
2018-02-24T02:46:30.512Z,40.40
2018-02-24T02:48:58.474Z,40.40
2018-02-24T02:51:26.855Z,40.60
2018-02-24T02:53:54.659Z,40.20
2018-02-24T02:56:22.513Z,40.60
2018-02-24T02:58:50.454Z,40.20
2018-02-24T03:01:19.341Z,39.50
2018-02-24T03:03:46.988Z,40.00
2018-02-24T03:06:14.703Z,39.60
2018-02-24T03:08:42.314Z,39.70
2018-02-24T03:11:09.936Z,39.10
2018-02-24T03:13:38.662Z,39.50
2018-02-24T03:16:07.682Z,39.20
2018-02-24T03:18:35.508Z,39.70
2018-02-24T03:21:03.534Z,39.80
2018-02-24T03:23:31.125Z,39.80
2018-02-24T03:25:59.585Z,40.10
2018-02-24T03:28:27.211Z,40.10
2018-02-24T03:30:54.858Z,39.50
2018-02-24T03:33:22.468Z,39.80
2018-02-24T03:35:50.548Z,40.20
2018-02-24T03:38:18.232Z,40.00
2018-02-24T03:40:45.866Z,40.10
2018-02-24T03:43:15.072Z,39.80
2018-02-24T03:46:01.908Z,41.20
2018-02-24T03:48:31.150Z,40.80
2018-02-24T03:50:59.760Z,40.40
2018-02-24T03:53:27.362Z,40.30
2018-02-24T03:55:55.017Z,40.90
2018-02-24T03:58:25.955Z,41.00
2018-02-24T04:00:55.615Z,41.10
2018-02-24T04:03:23.199Z,40.70
2018-02-24T04:05:50.826Z,40.10
2018-02-24T04:08:18.407Z,40.60
2018-02-24T04:10:46.109Z,41.20
2018-02-24T04:13:15.402Z,42.00
2018-02-24T04:15:44.078Z,41.70
2018-02-24T04:18:12.450Z,42.10
2018-02-24T04:20:40.824Z,42.40
2018-02-24T04:23:09.221Z,42.70
2018-02-24T04:25:37.588Z,43.00
2018-02-24T04:28:05.972Z,43.50
2018-02-24T04:30:34.271Z,42.20
2018-02-24T04:33:04.107Z,42.10
2018-02-24T04:35:31.738Z,41.60
2018-02-24T04:37:59.335Z,41.80
2018-02-24T04:40:26.969Z,41.80
2018-02-24T04:42:54.597Z,41.70
2018-02-24T04:45:24.017Z,41.60
2018-02-24T04:47:52.032Z,41.50
2018-02-24T04:50:19.653Z,41.20
2018-02-24T04:52:48.018Z,41.40
2018-02-24T04:55:16.398Z,41.20
2018-02-24T04:57:44.020Z,41.00
2018-02-24T05:00:11.903Z,41.20
2018-02-24T05:02:40.123Z,41.40
2018-02-24T05:05:08.605Z,41.30
2018-02-24T05:07:36.187Z,41.80
2018-02-24T05:10:03.798Z,41.40
2018-02-24T05:12:32.179Z,42.10
2018-02-24T05:15:00.532Z,42.70
2018-02-24T05:17:28.168Z,42.00
2018-02-24T05:19:55.763Z,42.00
2018-02-24T05:22:23.381Z,42.40
2018-02-24T05:24:51.038Z,42.20
2018-02-24T05:27:18.626Z,42.30
2018-02-24T05:29:46.265Z,42.60
2018-02-24T05:32:15.745Z,42.70
2018-02-24T05:34:44.711Z,42.60
2018-02-24T05:37:13.554Z,43.00
2018-02-24T05:39:41.190Z,42.00
2018-02-24T05:42:08.798Z,41.90
2018-02-24T05:44:36.479Z,42.30
2018-02-24T05:47:04.116Z,42.40
2018-02-24T05:49:32.117Z,42.40
2018-02-24T05:52:00.134Z,42.70
2018-02-24T05:54:28.377Z,43.30
2018-02-24T05:56:58.720Z,43.30
2018-02-24T05:59:26.303Z,43.60
2018-02-24T06:01:53.919Z,43.40
2018-02-24T06:04:22.016Z,43.80
2018-02-24T06:06:50.409Z,43.30
2018-02-24T06:09:18.021Z,42.80
2018-02-24T06:11:47.651Z,42.80
2018-02-24T06:14:15.269Z,42.20
2018-02-24T06:16:43.288Z,42.40
2018-02-24T06:19:10.897Z,42.80
2018-02-24T06:21:39.722Z,43.20
2018-02-24T06:24:07.299Z,42.60
2018-02-24T06:26:35.294Z,42.70
2018-02-24T06:29:04.317Z,42.70
2018-02-24T06:31:33.525Z,42.30
2018-02-24T06:34:01.157Z,43.10
2018-02-24T06:36:30.330Z,43.50
2018-02-24T06:38:58.535Z,43.20
2018-02-24T06:41:26.741Z,43.60
2018-02-24T06:43:55.771Z,44.40
2018-02-24T06:46:23.634Z,44.20
2018-02-24T06:48:51.270Z,43.90
2018-02-24T06:51:18.889Z,44.10
2018-02-24T06:53:46.545Z,44.10
2018-02-24T06:56:14.182Z,44.60
2018-02-24T06:58:42.543Z,44.80
2018-02-24T07:01:10.181Z,44.40
2018-02-24T07:03:38.466Z,44.70
2018-02-24T07:06:08.927Z,44.70
2018-02-24T07:08:36.560Z,44.90
2018-02-24T07:11:04.872Z,44.30
2018-02-24T07:13:33.161Z,44.80
2018-02-24T07:16:00.770Z,43.80
2018-02-24T07:18:28.389Z,43.90
2018-02-24T07:20:57.286Z,43.90
2018-02-24T07:23:25.292Z,43.90
2018-02-24T07:25:52.877Z,43.40
2018-02-24T07:28:20.691Z,42.90
2018-02-24T07:30:48.631Z,42.50
2018-02-24T07:33:16.262Z,42.80
2018-02-24T07:35:44.414Z,42.00
2018-02-24T07:38:12.824Z,42.20
2018-02-24T07:40:41.326Z,41.20
2018-02-24T07:43:10.447Z,41.60
2018-02-24T07:45:38.802Z,41.80
2018-02-24T07:48:06.424Z,40.80
2018-02-24T07:50:34.017Z,48.30
2018-02-24T07:53:01.621Z,46.30
2018-02-24T07:55:30.433Z,44.00
2018-02-24T07:57:59.525Z,43.70
2018-02-24T08:00:27.174Z,40.00
2018-02-24T08:02:54.779Z,39.90
2018-02-24T08:05:22.368Z,41.10
2018-02-24T08:07:52.744Z,38.90
2018-02-24T08:10:20.469Z,34.40
2018-02-24T08:12:50.807Z,35.80
2018-02-24T08:15:18.842Z,36.40
2018-02-24T08:17:46.603Z,37.40
2018-02-24T08:20:16.906Z,39.00
2018-02-24T08:22:44.900Z,39.30
2018-02-24T08:25:12.491Z,39.10
2018-02-24T08:27:40.857Z,40.00
2018-02-24T08:30:08.588Z,39.80
2018-02-24T08:32:36.973Z,40.10
2018-02-24T08:35:05.572Z,39.60
2018-02-24T08:37:33.266Z,38.50
2018-02-24T08:40:01.668Z,38.80
2018-02-24T08:42:29.499Z,38.20
2018-02-24T08:44:57.081Z,38.40
2018-02-24T08:47:25.972Z,38.60
2018-02-24T08:49:54.096Z,38.60
2018-02-24T08:52:21.680Z,38.40
2018-02-24T08:54:49.321Z,70.70
2018-02-24T08:57:17.884Z,41.30
2018-02-24T08:59:45.871Z,37.00
2018-02-24T09:02:13.777Z,37.40
2018-02-24T09:04:42.194Z,37.10
2018-02-24T09:07:11.153Z,36.90
2018-02-24T09:09:39.003Z,36.50
2018-02-24T09:12:07.548Z,36.80
2018-02-24T09:14:35.147Z,35.90
2018-02-24T09:17:04.625Z,36.60
2018-02-24T09:20:01.379Z,36.40
2018-02-24T09:22:29.232Z,36.50
2018-02-24T09:24:58.245Z,36.90
2018-02-24T09:27:25.867Z,37.00
2018-02-24T09:29:53.486Z,36.40
2018-02-24T09:32:21.064Z,36.60
2018-02-24T09:34:48.670Z,36.50
2018-02-24T09:37:17.101Z,36.90
2018-02-24T09:39:44.756Z,35.50
2018-02-24T09:42:14.270Z,35.60
2018-02-24T09:44:42.079Z,35.50
2018-02-24T09:47:12.601Z,33.90
2018-02-24T09:49:40.202Z,34.10
2018-02-24T09:52:07.780Z,33.70
2018-02-24T09:54:36.155Z,33.40
2018-02-24T09:57:04.064Z,33.60
2018-02-24T09:59:33.136Z,33.30
2018-02-24T10:02:01.135Z,33.70
2018-02-24T10:04:28.720Z,33.30
2018-02-24T10:06:56.301Z,32.80
2018-02-24T10:09:23.932Z,31.90
2018-02-24T10:11:52.260Z,31.90
2018-02-24T10:14:19.860Z,31.80
2018-02-24T10:16:48.203Z,31.60
2018-02-24T10:19:15.807Z,31.90
2018-02-24T10:21:45.126Z,32.10
2018-02-24T10:24:13.311Z,32.00
2018-02-24T10:26:40.954Z,29.70
2018-02-24T10:29:08.567Z,29.80
2018-02-24T10:31:36.166Z,29.30
2018-02-24T10:34:05.610Z,29.90
2018-02-24T10:36:33.597Z,29.30
2018-02-24T10:39:02.253Z,28.80
2018-02-24T10:41:29.832Z,27.60
2018-02-24T10:43:57.421Z,28.60
2018-02-24T10:46:25.016Z,27.80
2018-02-24T10:49:04.699Z,27.30
2018-02-24T10:51:32.280Z,26.30
2018-02-24T10:54:00.490Z,26.80
2018-02-24T10:56:31.122Z,26.30
2018-02-24T10:58:59.556Z,26.30
2018-02-24T11:01:27.158Z,25.70
2018-02-24T11:03:55.520Z,26.10
2018-02-24T11:06:23.865Z,25.20
2018-02-24T11:08:51.451Z,25.60
2018-02-24T11:11:19.039Z,25.20
2018-02-24T11:13:48.935Z,25.30
2018-02-24T11:16:17.550Z,25.10
2018-02-24T11:18:45.123Z,24.50
2018-02-24T11:21:12.735Z,23.90
2018-02-24T11:23:41.229Z,24.70
2018-02-24T11:26:09.274Z,24.30
2018-02-24T11:28:38.305Z,23.70
2018-02-24T11:31:06.308Z,23.80
2018-02-24T11:33:33.873Z,23.60
2018-02-24T11:36:01.535Z,23.90
2018-02-24T11:38:29.117Z,23.40
2018-02-24T11:40:56.729Z,23.20
2018-02-24T11:43:24.311Z,23.40
2018-02-24T11:45:51.953Z,23.10
2018-02-24T11:48:19.510Z,22.20
2018-02-24T11:50:48.804Z,22.30
2018-02-24T11:53:18.116Z,23.10
2018-02-24T11:55:46.560Z,22.60
2018-02-24T11:58:14.947Z,23.00
2018-02-24T12:00:42.581Z,22.00
2018-02-24T12:03:10.151Z,22.30
2018-02-24T12:05:38.755Z,22.50
2018-02-24T12:08:07.619Z,22.40
2018-02-24T12:10:36.048Z,21.30
2018-02-24T12:13:03.629Z,20.80
2018-02-24T12:15:31.655Z,21.20
2018-02-24T12:18:00.691Z,20.40
2018-02-24T12:20:28.377Z,19.70
2018-02-24T12:22:55.954Z,19.60
2018-02-24T12:25:24.386Z,20.10
2018-02-24T12:27:52.087Z,18.80
2018-02-24T12:30:33.672Z,18.50
2018-02-24T12:33:03.072Z,17.80
2018-02-24T12:35:31.144Z,18.20
2018-02-24T12:38:01.733Z,17.50
2018-02-24T12:40:29.343Z,17.70
2018-02-24T12:42:56.910Z,17.80
2018-02-24T12:45:25.263Z,18.40
2018-02-24T12:47:53.287Z,17.60
2018-02-24T12:50:22.650Z,17.50
2018-02-24T12:52:50.306Z,17.00
2018-02-24T12:55:17.905Z,17.90
2018-02-24T12:57:45.989Z,18.40
2018-02-24T13:00:14.324Z,17.10
2018-02-24T13:02:42.315Z,18.10
2018-02-24T13:05:13.168Z,17.80
2018-02-24T13:07:41.348Z,18.10
2018-02-24T13:10:11.558Z,19.20
2018-02-24T13:12:39.328Z,18.10
2018-02-24T13:15:07.406Z,18.60
2018-02-24T13:17:37.631Z,17.60
2018-02-24T13:20:05.399Z,17.20
2018-02-24T13:22:32.980Z,17.00
2018-02-24T13:25:01.042Z,17.40
2018-02-24T13:27:28.702Z,16.70
2018-02-24T13:29:58.472Z,17.50
2018-02-24T13:32:26.090Z,17.60
2018-02-24T13:34:53.690Z,17.70
2018-02-24T13:37:22.371Z,16.60
2018-02-24T13:39:50.454Z,17.20
2018-02-24T13:42:20.312Z,18.00
2018-02-24T13:44:49.125Z,16.00
2018-02-24T13:47:16.735Z,16.10
2018-02-24T13:49:44.360Z,15.50
2018-02-24T13:52:12.604Z,15.90
2018-02-24T13:54:40.768Z,15.50
2018-02-24T13:57:09.108Z,15.40
2018-02-24T13:59:36.687Z,15.70
2018-02-24T14:02:05.039Z,15.60
2018-02-24T14:04:32.615Z,15.80
2018-02-24T14:07:00.800Z,15.80
2018-02-24T14:09:29.164Z,16.20
2018-02-24T14:11:57.195Z,15.40
2018-02-24T14:14:24.791Z,15.10
2018-02-24T14:16:53.049Z,15.20
2018-02-24T14:19:20.682Z,16.10
2018-02-24T14:21:48.267Z,16.20
2018-02-24T14:24:40.414Z,16.60
2018-02-24T14:27:09.514Z,16.40
2018-02-24T14:29:37.097Z,15.90
2018-02-24T14:32:04.881Z,15.20
2018-02-24T14:34:32.527Z,15.40
2018-02-24T14:37:06.834Z,16.20
2018-02-24T14:39:36.161Z,16.00
2018-02-24T14:42:03.971Z,16.00
2018-02-24T14:44:31.877Z,15.70
2018-02-24T14:47:01.231Z,17.10
2018-02-24T14:49:28.820Z,16.60
2018-02-24T14:51:56.443Z,16.00
2018-02-24T14:54:24.213Z,15.70
2018-02-24T14:56:52.103Z,15.50
2018-02-24T14:59:19.988Z,15.40
2018-02-24T15:01:48.430Z,16.10
2018-02-24T15:04:16.047Z,15.90
2018-02-24T15:06:44.417Z,16.70
2018-02-24T15:09:12.805Z,17.10
2018-02-24T15:11:41.021Z,16.10
2018-02-24T15:14:08.611Z,16.50
2018-02-24T15:16:36.581Z,15.70
2018-02-24T15:19:05.044Z,15.80
2018-02-24T15:21:33.628Z,16.50
2018-02-24T15:24:01.498Z,16.30
2018-02-24T15:26:29.769Z,16.50
2018-02-24T15:28:59.008Z,17.60
2018-02-24T15:31:27.396Z,17.20
2018-02-24T15:33:55.742Z,17.00
2018-02-24T15:36:24.117Z,17.70
2018-02-24T15:38:52.039Z,17.70
2018-02-24T15:41:19.653Z,16.40
2018-02-24T15:43:49.020Z,17.70
2018-02-24T15:46:16.686Z,17.80
2018-02-24T15:48:44.255Z,18.20
2018-02-24T15:51:11.859Z,18.10
2018-02-24T15:53:40.248Z,17.70
2018-02-24T15:56:08.596Z,17.50
2018-02-24T15:58:36.420Z,17.60
2018-02-24T16:01:04.879Z,17.80
2018-02-24T16:03:38.365Z,18.40
2018-02-24T16:06:07.199Z,18.40
2018-02-24T17:28:21.139Z,33.00
2018-02-24T17:30:48.855Z,32.90
2018-02-24T17:33:16.457Z,32.90
2018-02-24T17:35:44.842Z,32.30
2018-02-24T17:38:13.208Z,33.20
2018-02-24T17:40:41.851Z,32.60
2018-02-24T17:43:09.473Z,36.30
2018-02-24T17:45:37.542Z,32.40
2018-02-24T17:48:06.591Z,31.80
2018-02-24T17:50:34.161Z,32.10
2018-02-24T17:53:01.723Z,31.40
2018-02-24T17:55:31.260Z,30.30
2018-02-24T17:58:12.258Z,29.90
2018-02-24T18:00:42.950Z,30.60
2018-02-24T18:03:11.352Z,30.50
2018-02-24T18:05:41.359Z,30.10
2018-02-24T18:08:09.098Z,29.50
2018-02-24T18:10:36.663Z,29.70
2018-02-24T18:13:04.266Z,29.90
2018-02-24T18:15:32.609Z,30.10
2018-02-24T18:18:00.599Z,29.30
2018-02-24T18:20:29.588Z,29.80
2018-02-24T18:22:57.248Z,29.80
2018-02-24T18:25:25.081Z,29.50
2018-02-24T18:27:52.809Z,29.50
2018-02-24T18:30:20.426Z,29.40
2018-02-24T18:32:48.771Z,28.90
2018-02-24T18:35:17.382Z,29.60
2018-02-24T18:37:44.984Z,29.70
2018-02-24T18:40:12.609Z,29.70
2018-02-24T18:42:40.516Z,29.40
2018-02-24T18:45:08.477Z,29.00
2018-02-24T18:47:36.141Z,28.70
2018-02-24T18:50:03.750Z,28.80
2018-02-24T18:52:31.518Z,29.10
2018-02-24T18:54:59.103Z,29.00
2018-02-24T18:57:28.557Z,29.40
2018-02-24T18:59:57.224Z,29.30
2018-02-24T19:02:24.805Z,29.60
2018-02-24T19:04:52.425Z,29.60
2018-02-24T19:07:20.029Z,29.70
2018-02-24T19:09:47.746Z,29.60
2018-02-24T19:12:15.313Z,29.80
2018-02-24T19:14:43.189Z,29.80
2018-02-24T19:17:11.666Z,29.40
2018-02-24T19:19:39.347Z,29.80
2018-02-24T19:22:07.013Z,29.00
2018-02-24T19:24:34.623Z,29.00
2018-02-24T19:27:02.203Z,29.50
2018-02-24T19:29:30.399Z,29.90
2018-02-24T19:31:57.985Z,30.20
2018-02-24T19:34:26.363Z,30.70
2018-02-24T19:36:54.720Z,30.80
2018-02-24T19:39:22.432Z,30.40
2018-02-24T19:41:50.389Z,30.50
2018-02-24T19:44:18.021Z,30.40
2018-02-24T19:46:45.665Z,30.90
2018-02-24T19:49:13.818Z,30.60
2018-02-24T19:51:41.868Z,30.90
2018-02-24T19:54:09.491Z,30.20
2018-02-24T19:56:37.920Z,31.30
2018-02-24T19:59:05.744Z,30.70
2018-02-24T20:01:33.418Z,29.80
2018-02-24T20:04:01.913Z,29.60
2018-02-24T20:06:29.933Z,29.20
2018-02-24T20:08:57.511Z,29.00
2018-02-24T20:11:25.126Z,29.20
2018-02-24T20:13:53.141Z,29.10
2018-02-24T20:16:21.659Z,29.50
2018-02-24T20:18:49.636Z,28.80
2018-02-24T20:21:17.897Z,28.60
2018-02-24T20:23:47.079Z,28.80
2018-02-24T20:26:16.507Z,29.10
2018-02-24T20:28:44.255Z,28.50
2018-02-24T20:31:13.159Z,28.90
2018-02-24T20:33:40.949Z,29.20
2018-02-24T20:36:08.569Z,28.90
2018-02-24T20:38:36.995Z,29.50
2018-02-24T20:41:04.804Z,29.90
2018-02-24T20:43:32.382Z,29.10
2018-02-24T20:46:00.468Z,29.10
2018-02-24T20:48:28.542Z,29.30
2018-02-24T20:50:56.293Z,29.30
2018-02-24T20:53:23.872Z,29.80
2018-02-24T20:55:51.475Z,29.70
2018-02-24T20:58:19.833Z,30.50
2018-02-24T21:00:47.621Z,29.50
2018-02-24T21:03:15.997Z,30.00
2018-02-24T21:05:44.249Z,30.00
2018-02-24T21:08:12.659Z,30.60
2018-02-24T21:10:40.398Z,30.90
2018-02-24T21:13:09.072Z,30.40
2018-02-24T21:15:36.744Z,30.00
2018-02-24T21:18:04.725Z,30.00
2018-02-24T21:20:32.336Z,29.70
2018-02-24T21:22:59.961Z,30.00
2018-02-24T21:25:28.346Z,29.30
2018-02-24T21:27:56.018Z,28.80
2018-02-24T21:30:24.696Z,29.60
2018-02-24T21:32:52.356Z,29.30
2018-02-24T21:35:19.933Z,29.60
2018-02-24T21:37:48.318Z,30.50
2018-02-24T21:40:16.649Z,30.30
2018-02-24T21:42:44.356Z,29.90
2018-02-24T21:45:12.441Z,29.80
2018-02-24T21:47:41.458Z,30.10
2018-02-24T21:50:09.035Z,30.40
2018-02-24T21:52:37.570Z,31.80
2018-02-24T21:55:05.361Z,31.20
2018-02-24T21:57:33.666Z,31.70
2018-02-24T22:00:01.673Z,31.50
2018-02-24T22:02:29.299Z,32.00
2018-02-24T22:04:56.927Z,32.40
2018-02-24T22:07:25.318Z,32.10
2018-02-24T22:09:53.644Z,31.70
2018-02-24T22:12:21.824Z,31.20
2018-02-24T22:14:49.670Z,31.90
2018-02-24T22:17:17.688Z,32.10
2018-02-24T22:19:45.786Z,32.40
2018-02-24T22:22:13.580Z,33.40
2018-02-24T22:24:41.433Z,33.70
2018-02-24T22:27:09.105Z,33.90
2018-02-24T22:29:38.454Z,33.30
2018-02-24T22:32:06.863Z,33.80
2018-02-24T22:34:34.585Z,32.90
2018-02-24T22:37:02.278Z,33.00
2018-02-24T22:39:29.886Z,33.30
2018-02-24T22:41:58.018Z,33.10
2018-02-24T22:44:26.392Z,33.00
2018-02-24T22:46:54.747Z,33.40
2018-02-24T22:49:22.355Z,33.20
2018-02-24T22:51:50.554Z,33.60
2018-02-24T22:54:18.217Z,33.70
2018-02-24T22:56:46.227Z,33.70
2018-02-24T22:59:13.832Z,34.20
2018-02-24T23:01:41.502Z,33.50
2018-02-24T23:04:09.668Z,33.50
2018-02-24T23:06:37.946Z,34.00
2018-02-24T23:09:05.552Z,33.00
2018-02-24T23:11:33.124Z,32.90
2018-02-24T23:14:01.155Z,32.90
2018-02-24T23:16:28.910Z,33.30
2018-02-24T23:18:56.559Z,33.70
2018-02-24T23:21:24.986Z,33.60
2018-02-24T23:23:52.594Z,33.60
2018-02-24T23:26:20.175Z,33.90
2018-02-24T23:28:47.777Z,33.60
2018-02-24T23:31:15.556Z,33.70
2018-02-24T23:33:44.367Z,34.40
2018-02-24T23:36:12.153Z,34.40
2018-02-24T23:38:39.756Z,32.60
2018-02-24T23:41:07.377Z,32.80
2018-02-24T23:43:35.030Z,32.60
2018-02-24T23:46:05.955Z,33.00
2018-02-24T23:48:33.587Z,33.60
2018-02-24T23:51:01.593Z,33.50
2018-02-24T23:53:29.241Z,34.00
2018-02-24T23:55:57.766Z,33.90
2018-02-24T23:58:25.793Z,33.10
